Time;durP1;ratioP1;P1;durP2;ratioP2;P2;SDS_P1;SDS_P2;PMS_P1;PMS_P2;Temp;Humidity;BMP_temperature;BMP_pressure;BME280_temperature;BME280_humidity;BME280_pressure;Samples;Min_cycle;Max_cycle;Signal;HPM_P1;HPM_P2
2023/06/15 00:03:18;;;;;;;8.87;5.97;;;;;;;20.52;82.12;96921.13;5027278;28;20226;-69
2023/06/15 00:06:39;;;;;;;9.03;6.03;;;;;;;20.40;82.28;96924.81;5027526;28;20285;-67
2023/06/15 00:09:59;;;;;;;10.13;5.40;;;;;;;20.24;83.14;96929.72;5010271;28;20205;-69
2023/06/15 00:13:20;;;;;;;7.40;5.50;;;;;;;20.32;82.77;96916.72;5027814;28;20689;-72
2023/06/15 00:16:41;;;;;;;9.40;6.00;;;;;;;20.01;84.14;96909.81;5027154;28;20322;-69
2023/06/15 00:20:03;;;;;;;6.77;6.13;;;;;;;19.85;85.09;96912.06;5026476;28;20296;-72
2023/06/15 00:23:26;;;;;;;8.10;5.93;;;;;;;20.08;84.08;96914.41;5027441;28;20203;-68
2023/06/15 00:26:47;;;;;;;8.77;5.43;;;;;;;20.26;83.51;96917.25;5027793;28;20693;-75
2023/06/15 00:30:10;;;;;;;11.90;6.17;;;;;;;20.40;82.69;96909.03;5027316;28;20203;-81
2023/06/15 00:33:30;;;;;;;6.83;6.23;;;;;;;20.45;82.14;96914.72;5026848;28;20234;-72
2023/06/15 00:36:51;;;;;;;8.47;6.10;;;;;;;20.41;82.43;96910.69;5026610;28;20210;-66
2023/06/15 00:40:12;;;;;;;7.93;5.80;;;;;;;20.46;82.43;96903.25;5027372;28;20234;-69
2023/06/15 00:43:32;;;;;;;8.70;5.73;;;;;;;20.36;82.65;96923.38;5027253;28;20253;-70
2023/06/15 00:46:53;;;;;;;9.27;6.37;;;;;;;20.46;82.13;96913.75;5026533;28;20245;-67
2023/06/15 00:50:14;;;;;;;7.17;5.27;;;;;;;20.35;83.45;96908.59;5026285;28;20208;-68
2023/06/15 00:53:35;;;;;;;6.40;5.63;;;;;;;20.35;82.94;96907.75;5027289;28;20233;-66
2023/06/15 00:56:56;;;;;;;10.10;5.60;;;;;;;20.38;82.73;96905.69;5027121;28;20202;-75
2023/06/15 01:00:18;;;;;;;14.93;5.90;;;;;;;20.25;83.30;96905.09;5026269;28;20269;-67
2023/06/15 01:03:44;;;;;;;10.33;5.97;;;;;;;20.27;83.46;96903.16;5026487;28;20205;-71
2023/06/15 01:07:06;;;;;;;8.97;5.93;;;;;;;20.24;83.65;96899.00;5026331;28;20269;-75
2023/06/15 01:10:31;;;;;;;7.40;5.87;;;;;;;20.27;83.35;96892.66;5009207;28;20209;-72
2023/06/15 01:13:51;;;;;;;8.10;5.67;;;;;;;20.27;83.54;96887.38;5026240;28;20198;-73
2023/06/15 01:17:23;;;;;;;7.77;6.13;;;;;;;20.21;83.15;96893.19;5025766;28;20658;-70
2023/06/15 01:20:48;;;;;;;10.40;6.07;;;;;;;20.50;82.38;96882.75;5008059;28;20257;-72
2023/06/15 01:24:26;;;;;;;11.00;7.13;;;;;;;20.20;83.58;96886.25;5026717;28;20661;-73
2023/06/15 01:27:49;;;;;;;9.57;6.43;;;;;;;19.91;85.52;96880.00;5026580;28;20210;-69
2023/06/15 01:31:12;;;;;;;11.83;7.00;;;;;;;19.90;85.80;96878.34;5008832;28;20289;-70
2023/06/15 01:34:33;;;;;;;10.03;6.67;;;;;;;19.79;86.45;96875.78;5025582;28;20205;-72
2023/06/15 01:37:54;;;;;;;9.43;6.80;;;;;;;20.07;84.99;96881.16;5025390;28;20577;-71
2023/06/15 01:41:18;;;;;;;9.47;6.50;;;;;;;19.87;85.39;96882.06;5026273;28;20202;-70
2023/06/15 01:44:42;;;;;;;10.87;7.87;;;;;;;19.62;87.30;96885.09;5027090;28;20851;-72
2023/06/15 01:48:03;;;;;;;12.13;7.67;;;;;;;19.70;87.11;96884.47;5025932;28;20234;-65
2023/06/15 01:51:24;;;;;;;9.23;7.90;;;;;;;19.62;86.25;96885.09;5007796;28;20199;-65
2023/06/15 01:54:44;;;;;;;11.27;7.60;;;;;;;19.55;87.01;96883.13;5008126;28;20577;-68
2023/06/15 01:58:05;;;;;;;10.33;7.27;;;;;;;19.51;87.36;96882.53;5026310;28;20694;-67
2023/06/15 02:01:26;;;;;;;8.47;6.87;;;;;;;19.66;86.75;96883.06;5026076;28;20225;-66
2023/06/15 02:04:47;;;;;;;8.87;6.67;;;;;;;19.82;85.46;96876.38;5007793;28;20195;-66
2023/06/15 02:08:09;;;;;;;8.63;7.03;;;;;;;19.95;84.85;96881.38;5025371;28;20704;-66
2023/06/15 02:11:30;;;;;;;11.67;8.40;;;;;;;19.88;84.84;96885.53;5008226;28;20202;-69
2023/06/15 02:14:50;;;;;;;11.33;7.93;;;;;;;19.67;85.39;96876.81;4992184;28;20723;-68
2023/06/15 02:18:15;;;;;;;12.73;8.00;;;;;;;19.10;88.55;96879.88;5008847;28;20641;-69
2023/06/15 02:21:55;;;;;;;9.33;7.17;;;;;;;19.01;88.51;96873.56;5025748;28;20213;-66
2023/06/15 02:25:16;;;;;;;8.90;6.17;;;;;;;18.95;88.71;96884.56;5009488;28;20202;-66
2023/06/15 02:28:36;;;;;;;10.57;6.70;;;;;;;19.24;87.50;96890.91;5029897;28;20217;-68
2023/06/15 02:31:57;;;;;;;12.37;7.10;;;;;;;19.37;86.14;96891.56;5029790;28;20201;-71
2023/06/15 02:35:18;;;;;;;8.27;6.53;;;;;;;19.52;85.09;96888.59;5029354;28;20549;-71
2023/06/15 02:38:39;;;;;;;10.40;6.87;;;;;;;19.46;84.77;96874.19;5028567;28;20203;-71
2023/06/15 02:42:00;;;;;;;9.40;6.83;;;;;;;19.37;85.28;96886.31;5029408;28;20226;-65
2023/06/15 02:45:20;;;;;;;7.77;6.63;;;;;;;19.11;86.79;96878.88;5030045;28;20205;-67
2023/06/15 02:48:41;;;;;;;9.47;7.00;;;;;;;19.06;86.76;96884.50;5011601;28;20321;-70
2023/06/15 02:52:03;;;;;;;11.23;6.60;;;;;;;19.16;86.83;96874.94;5010883;28;20209;-68
2023/06/15 02:55:25;;;;;;;9.93;7.20;;;;;;;19.26;86.11;96881.09;5028690;28;20201;-69
2023/06/15 02:58:47;;;;;;;8.33;6.17;;;;;;;19.32;85.49;96877.13;4995339;28;20214;-67
2023/06/15 03:02:43;;;;;;;7.73;6.77;;;;;;;19.43;84.89;96884.97;5015533;28;20205;-67
2023/06/15 03:06:08;;;;;;;9.40;6.63;;;;;;;19.64;83.95;96875.28;5026590;28;20217;-65
2023/06/15 03:09:29;;;;;;;9.33;6.53;;;;;;;19.51;84.70;96893.06;5028425;28;20203;-66
2023/06/15 03:12:50;;;;;;;8.67;6.93;;;;;;;19.79;83.67;96886.28;5010491;28;20293;-67
2023/06/15 03:16:15;;;;;;;10.27;7.63;;;;;;;19.90;83.21;96886.22;5018448;28;20242;-66
2023/06/15 03:19:36;;;;;;;11.90;7.50;;;;;;;19.89;82.77;96884.53;5008076;28;20774;-68
2023/06/15 03:22:57;;;;;;;11.37;7.37;;;;;;;19.96;82.00;96883.91;5007356;28;20206;-66
2023/06/15 03:26:18;;;;;;;15.57;6.80;;;;;;;19.51;82.79;96885.19;5006864;28;20218;-64
2023/06/15 03:29:00;;;;;;;12.37;7.63;;;;;;;19.12;84.21;96885.81;4998581;28;20760;-66
2023/06/15 03:31:33;;;;;;;12.97;7.03;;;;;;;19.14;84.04;96869.00;5021084;28;20224;-70
2023/06/15 03:34:01;;;;;;;13.83;6.67;;;;;;;19.55;82.70;96888.38;5010916;28;20245;-68
2023/06/15 03:36:31;;;;;;;11.47;7.57;;;;;;;19.47;82.51;96881.13;5028640;28;20256;-66
2023/06/15 03:38:59;;;;;;;14.90;6.90;;;;;;;19.37;83.41;96886.31;5027232;28;20252;-69
2023/06/15 03:41:30;;;;;;;9.60;6.47;;;;;;;19.11;84.11;96874.47;5028215;28;20212;-66
2023/06/15 03:43:59;;;;;;;12.33;7.50;;;;;;;18.89;85.43;96882.44;5010570;28;20754;-72
2023/06/15 03:46:27;;;;;;;16.27;8.07;;;;;;;19.22;84.08;96874.44;4999633;28;20756;-66
2023/06/15 03:48:55;;;;;;;11.53;7.77;;;;;;;19.33;83.50;96884.06;5019117;28;20264;-71
2023/06/15 03:51:22;;;;;;;13.33;7.57;;;;;;;19.93;81.67;96888.56;5001078;28;20716;-66
2023/06/15 03:53:49;;;;;;;9.57;7.50;;;;;;;20.17;80.10;96892.56;4984311;28;20604;-69
2023/06/15 03:56:16;;;;;;;9.33;7.03;;;;;;;20.41;78.49;96883.53;5017307;28;20667;-75
2023/06/15 03:58:43;;;;;;;13.13;6.67;;;;;;;21.01;77.00;96893.91;5025751;28;20223;-66
2023/06/15 04:01:12;;;;;;;12.17;6.57;;;;;;;21.35;74.53;96883.84;5010432;28;20192;-66
2023/06/15 04:03:40;;;;;;;8.63;6.47;;;;;;;21.30;74.63;96894.78;4994640;28;20203;-72
2023/06/15 04:06:07;;;;;;;9.97;6.53;;;;;;;21.26;75.32;96893.41;5023046;28;20286;-70
2023/06/15 04:08:35;;;;;;;11.23;7.80;;;;;;;21.37;74.85;96900.34;5037647;28;20264;-77
2023/06/15 04:11:03;;;;;;;9.80;7.67;;;;;;;21.37;75.22;96887.97;5019287;28;20198;-66
2023/06/15 04:13:30;;;;;;;13.47;9.23;;;;;;;21.24;77.29;96894.50;5017798;28;20211;-68
2023/06/15 04:16:37;;;;;;;10.70;8.73;;;;;;;21.61;76.73;96900.72;5035766;28;20206;-71
2023/06/15 04:19:58;;;;;;;14.00;7.67;;;;;;;21.92;75.42;96906.66;5013120;28;20235;-73
2023/06/15 04:23:20;;;;;;;11.23;9.03;;;;;;;21.66;76.77;96877.38;5029169;28;20234;-66
2023/06/15 04:26:42;;;;;;;16.87;10.37;;;;;;;21.82;76.74;96911.94;5028924;28;20198;-67
2023/06/15 04:30:05;;;;;;;14.37;8.60;;;;;;;21.90;76.48;96906.78;5029622;28;20207;-67
2023/06/15 04:33:26;;;;;;;10.33;8.10;;;;;;;22.40;74.23;96899.41;5029489;28;20250;-67
2023/06/15 04:36:48;;;;;;;12.77;9.00;;;;;;;22.91;72.43;96904.97;5029319;28;20730;-68
2023/06/15 04:40:10;;;;;;;11.33;8.40;;;;;;;22.38;74.44;96899.53;5028489;28;20236;-67
2023/06/15 04:43:32;;;;;;;9.57;8.30;;;;;;;22.36;74.05;96901.47;5028367;28;20726;-67
2023/06/15 04:46:53;;;;;;;10.40;8.87;;;;;;;22.46;74.20;96912.00;5029198;28;20627;-73
2023/06/15 04:50:14;;;;;;;9.00;7.97;;;;;;;22.27;74.58;96912.91;5028940;28;20295;-76
2023/06/15 04:53:35;;;;;;;11.33;8.37;;;;;;;22.12;75.06;96902.97;4988828;28;20201;-70
2023/06/15 04:56:57;;;;;;;10.47;7.40;;;;;;;22.74;73.63;96902.28;4988706;28;20319;-71
2023/06/15 05:00:18;;;;;;;13.70;8.50;;;;;;;23.18;71.92;96907.56;4989628;28;20618;-76
2023/06/15 05:03:41;;;;;;;12.47;9.07;;;;;;;22.52;74.20;96895.59;5005978;28;20210;-73
2023/06/15 05:07:02;;;;;;;14.20;8.30;;;;;;;22.76;73.22;96897.69;5006724;28;20204;-68
2023/06/15 05:10:27;;;;;;;11.73;8.40;;;;;;;23.38;70.43;96916.19;4972634;28;20361;-70
2023/06/15 05:13:48;;;;;;;12.30;7.67;;;;;;;23.55;69.47;96912.69;4988609;28;20202;-68
2023/06/15 05:17:09;;;;;;;12.70;9.73;;;;;;;24.24;66.92;96910.88;5007058;28;20273;-76
2023/06/15 05:20:30;;;;;;;11.07;7.77;;;;;;;24.47;66.82;96918.25;4989095;28;20231;-75
2023/06/15 05:23:51;;;;;;;8.93;7.20;;;;;;;24.81;65.21;96919.91;4988382;28;20205;-71
2023/06/15 05:27:12;;;;;;;16.60;8.97;;;;;;;25.26;63.29;96913.41;4988732;28;20206;-75
2023/06/15 05:30:33;;;;;;;10.57;7.20;;;;;;;25.18;62.94;96919.53;4988905;28;20211;-71
2023/06/15 05:33:55;;;;;;;8.77;6.90;;;;;;;24.86;63.00;96922.09;4989161;28;20207;-73
2023/06/15 05:37:15;;;;;;;12.80;7.50;;;;;;;25.01;64.19;96926.63;4974350;28;20373;-68
2023/06/15 05:40:36;;;;;;;11.87;6.93;;;;;;;25.14;61.82;96927.97;4989836;28;20930;-72
2023/06/15 05:43:52;;;;;;;10.07;7.13;;;;;;;25.27;63.21;96930.94;4988146;28;20929;-75
2023/06/15 05:46:21;;;;;;;13.87;8.23;;;;;;;25.38;61.72;96922.69;4973550;28;20238;-68
2023/06/15 05:48:48;;;;;;;12.87;8.20;;;;;;;25.69;60.78;96921.09;5006041;28;20191;-78
2023/06/15 05:51:16;;;;;;;10.67;8.50;;;;;;;25.64;60.55;96913.63;4989511;28;20217;-67
2023/06/15 05:53:43;;;;;;;13.10;7.87;;;;;;;25.35;61.71;96929.16;5005549;28;20206;-72
2023/06/15 05:56:10;;;;;;;14.03;9.07;;;;;;;25.55;61.17;96930.56;4989483;28;20288;-73
2023/06/15 05:58:38;;;;;;;12.73;7.80;;;;;;;25.26;61.24;96918.72;5006411;28;20298;-67
2023/06/15 06:01:05;;;;;;;12.97;7.63;;;;;;;25.30;60.83;96920.88;4988735;28;20234;-71
2023/06/15 06:03:35;;;;;;;10.80;8.00;;;;;;;24.70;62.92;96914.91;5007042;28;20215;-75
2023/06/15 06:06:02;;;;;;;12.23;8.30;;;;;;;24.61;63.07;96929.09;5006005;28;20280;-76
2023/06/15 06:08:29;;;;;;;10.90;8.03;;;;;;;24.71;63.65;96929.78;5007070;28;20202;-70
2023/06/15 06:10:57;;;;;;;16.03;9.17;;;;;;;25.17;61.94;96933.78;4988593;28;20206;-80
2023/06/15 06:13:32;;;;;;;15.17;8.83;;;;;;;25.11;62.32;96925.63;4989101;28;20305;-74
2023/06/15 06:16:00;;;;;;;15.93;9.00;;;;;;;25.09;61.69;96907.25;4989372;28;20213;-73
2023/06/15 06:18:28;;;;;;;16.73;9.27;;;;;;;25.36;61.45;96924.69;4988620;28;20636;-77
2023/06/15 06:20:56;;;;;;;13.23;9.57;;;;;;;25.12;61.86;96922.00;5006605;28;20412;-71
2023/06/15 06:23:24;;;;;;;15.43;8.50;;;;;;;25.14;62.82;96918.22;4987863;28;20214;-72
2023/06/15 06:25:51;;;;;;;13.70;8.83;;;;;;;25.30;61.38;96926.19;4989042;28;20698;-74
2023/06/15 06:28:19;;;;;;;16.03;8.67;;;;;;;25.43;60.80;96925.72;5004458;28;20285;-81
2023/06/15 06:30:47;;;;;;;14.83;8.37;;;;;;;25.56;60.08;96924.22;5005951;28;20216;-73
2023/06/15 06:33:14;;;;;;;11.83;8.27;;;;;;;24.88;61.87;96891.81;5006538;28;20243;-80
2023/06/15 06:35:41;;;;;;;15.30;8.20;;;;;;;25.41;61.48;96923.22;5006303;28;20213;-73
2023/06/15 06:38:08;;;;;;;12.93;9.13;;;;;;;25.44;60.49;96877.00;4989151;28;20207;-70
2023/06/15 06:40:36;;;;;;;12.03;8.60;;;;;;;25.70;59.92;96912.94;5005444;28;20675;-74
2023/06/15 06:43:03;;;;;;;9.13;7.37;;;;;;;25.93;58.63;96928.19;5006710;28;20291;-75
2023/06/15 06:45:30;;;;;;;6.97;6.20;;;;;;;25.86;58.99;96928.06;4987704;28;20955;-81
2023/06/15 06:47:58;;;;;;;10.73;6.80;;;;;;;25.90;58.05;96904.66;5006145;28;20745;-75
2023/06/15 06:50:25;;;;;;;11.73;6.97;;;;;;;26.09;57.69;96928.22;5005592;28;20249;-70
2023/06/15 06:52:53;;;;;;;8.50;6.10;;;;;;;26.16;58.21;96923.88;5005073;28;20235;-67
2023/06/15 06:55:20;;;;;;;7.87;6.30;;;;;;;26.23;57.25;96935.50;5006271;28;20199;-72
2023/06/15 06:57:47;;;;;;;7.50;5.90;;;;;;;26.28;56.54;96919.84;5004757;28;20848;-68
2023/06/15 07:00:15;;;;;;;6.50;5.30;;;;;;;25.78;54.78;96928.88;5006643;28;20231;-72
2023/06/15 07:02:42;;;;;;;5.90;5.00;;;;;;;25.15;56.00;96916.34;5005590;28;20227;-79
2023/06/15 07:05:10;;;;;;;9.77;8.70;;;;;;;25.16;58.60;96902.97;5006775;28;20696;-74
2023/06/15 07:07:37;;;;;;;9.47;6.27;;;;;;;25.44;56.90;96891.09;4989382;28;20281;-81
2023/06/15 07:10:05;;;;;;;9.27;5.13;;;;;;;25.00;56.87;96924.09;5006718;28;20206;-77
2023/06/15 07:12:33;;;;;;;4.83;4.30;;;;;;;24.58;56.06;96910.88;5010962;28;20210;-80
2023/06/15 07:15:00;;;;;;;9.37;5.47;;;;;;;25.05;57.21;96921.81;5010495;28;20183;-79
2023/06/15 07:17:32;;;;;;;6.40;4.60;;;;;;;25.41;55.23;96899.34;5009564;28;20206;-76
2023/06/15 07:19:59;;;;;;;4.63;4.20;;;;;;;26.04;52.70;96922.53;4991126;28;20241;-74
2023/06/15 07:22:27;;;;;;;6.67;4.83;;;;;;;25.84;55.04;96914.94;4991780;28;20202;-75
2023/06/15 07:24:54;;;;;;;5.20;4.30;;;;;;;25.15;57.25;96917.19;5009030;28;20214;-73
2023/06/15 07:27:22;;;;;;;5.77;3.97;;;;;;;25.27;56.15;96920.34;5008829;28;20206;-71
2023/06/15 07:29:49;;;;;;;6.67;4.20;;;;;;;25.51;55.91;96929.19;5009525;28;20313;-72
2023/06/15 07:32:16;;;;;;;7.53;4.70;;;;;;;25.95;54.66;96902.31;5008543;28;20206;-73
2023/06/15 07:34:43;;;;;;;5.83;4.70;;;;;;;25.76;55.95;96859.22;4992012;28;20236;-72
2023/06/15 07:37:10;;;;;;;9.70;5.47;;;;;;;26.28;54.37;96904.75;5008037;28;20603;-75
2023/06/15 07:39:37;;;;;;;7.63;5.30;;;;;;;25.62;56.02;96867.88;5009395;28;20223;-76
2023/06/15 07:42:06;;;;;;;5.13;4.67;;;;;;;25.74;56.04;96908.97;4990675;28;20722;-68
2023/06/15 07:44:35;;;;;;;5.63;4.23;;;;;;;25.75;55.26;96899.19;5032373;28;20227;-78
2023/06/15 07:47:02;;;;;;;10.80;7.23;;;;;;;26.05;55.68;96908.28;5025780;28;20234;-69
2023/06/15 07:49:29;;;;;;;5.57;4.40;;;;;;;25.11;56.76;96872.63;5043647;28;20492;-75
2023/06/15 07:52:51;;;;;;;5.93;5.00;;;;;;;25.57;56.32;96899.38;5037553;28;20759;-71
2023/06/15 07:56:12;;;;;;;6.43;4.37;;;;;;;25.66;57.10;96903.66;5047631;28;20209;-70
2023/06/15 07:59:33;;;;;;;10.30;5.60;;;;;;;25.91;55.64;96898.34;5007551;28;20202;-67
2023/06/15 08:02:54;;;;;;;5.23;4.33;;;;;;;25.83;56.18;96896.53;5030658;28;20213;-70
2023/06/15 08:06:15;;;;;;;5.60;4.90;;;;;;;26.13;54.72;96893.19;5047354;28;20277;-72
2023/06/15 08:09:35;;;;;;;5.87;4.77;;;;;;;25.71;55.74;96903.19;5029666;28;20205;-71
2023/06/15 08:12:57;;;;;;;6.47;5.27;;;;;;;25.99;55.38;96890.38;5046287;28;20263;-67
2023/06/15 08:16:18;;;;;;;10.40;7.83;;;;;;;26.50;55.12;96880.09;5045974;28;21076;-69
2023/06/15 08:18:58;;;;;;;6.03;4.50;;;;;;;26.83;54.56;96888.78;5046259;28;20309;-72
2023/06/15 08:21:25;;;;;;;4.60;4.20;;;;;;;25.87;56.63;96894.34;5047957;28;20312;-71
2023/06/15 08:23:52;;;;;;;5.07;4.57;;;;;;;25.53;56.99;96894.56;5047649;28;20712;-69
2023/06/15 08:26:20;;;;;;;7.57;6.40;;;;;;;25.42;57.38;96882.47;5047838;28;20196;-73
2023/06/15 08:28:47;;;;;;;6.70;4.60;;;;;;;25.25;57.78;96903.78;5046942;28;20206;-72
2023/06/15 08:31:22;;;;;;;7.03;5.60;;;;;;;25.33;58.50;96886.06;5047965;28;20225;-67
2023/06/15 08:33:49;;;;;;;8.63;5.60;;;;;;;25.25;58.57;96888.72;5024831;28;20214;-71
2023/06/15 08:36:17;;;;;;;6.13;4.97;;;;;;;25.54;56.81;96890.91;5027405;28;20297;-69
2023/06/15 08:38:44;;;;;;;10.43;6.73;;;;;;;25.41;57.82;96883.44;5027594;28;20209;-78
2023/06/15 08:41:12;;;;;;;6.73;6.03;;;;;;;25.72;57.99;96880.94;5026854;28;20320;-78
2023/06/15 08:43:43;;;;;;;9.10;5.73;;;;;;;25.52;57.67;96892.91;5027762;28;20283;-76
2023/06/15 08:46:12;;;;;;;5.00;4.50;;;;;;;25.49;57.56;96883.44;5026353;28;20784;-73
2023/06/15 08:48:39;;;;;;;7.77;5.33;;;;;;;26.05;57.03;96869.28;5026833;28;20194;-66
2023/06/15 08:51:09;;;;;;;7.87;4.93;;;;;;;26.29;55.47;96876.38;5024272;28;20206;-70
2023/06/15 08:53:37;;;;;;;10.63;6.80;;;;;;;26.22;54.31;96862.13;5027155;28;20222;-69
2023/06/15 08:56:10;;;;;;;5.83;4.50;;;;;;;26.79;53.94;96882.16;5027127;28;20209;-73
2023/06/15 08:59:17;;;;;;;6.87;4.87;;;;;;;26.87;53.39;96879.50;5026009;28;20198;-68
2023/06/15 09:02:02;;;;;;;9.33;4.97;;;;;;;26.99;52.93;96886.06;5044134;28;20645;-79
2023/06/15 09:04:31;;;;;;;8.40;4.50;;;;;;;25.97;56.00;96881.72;5046873;28;20233;-76
2023/06/15 09:06:59;;;;;;;5.17;4.60;;;;;;;26.34;53.87;96879.34;5028996;28;20202;-70
2023/06/15 09:09:26;;;;;;;6.37;4.60;;;;;;;26.77;53.08;96881.50;5039422;28;20215;-69
2023/06/15 09:11:53;;;;;;;7.57;4.63;;;;;;;27.28;52.47;96886.19;5025996;28;20359;-75
2023/06/15 09:14:20;;;;;;;5.40;4.90;;;;;;;27.38;53.12;96880.66;5027473;28;20596;-74
2023/06/15 09:16:50;;;;;;;5.67;4.63;;;;;;;27.04;54.02;96880.19;5025248;28;20210;-72
2023/06/15 09:19:19;;;;;;;5.30;4.57;;;;;;;26.75;53.58;96890.69;5009760;28;20350;-70
2023/06/15 09:21:51;;;;;;;6.67;4.87;;;;;;;26.70;53.04;96879.69;5026256;28;20202;-79
2023/06/15 09:24:22;;;;;;;6.30;4.67;;;;;;;26.90;52.92;96870.31;5024612;28;20194;-74
2023/06/15 09:26:50;;;;;;;8.40;4.83;;;;;;;27.16;52.59;96876.16;5026567;28;20297;-67
2023/06/15 09:29:17;;;;;;;6.57;4.53;;;;;;;26.96;53.36;96870.44;5025502;28;20685;-70
2023/06/15 09:31:44;;;;;;;5.10;4.20;;;;;;;26.92;52.47;96861.16;5026600;28;20263;-80
2023/06/15 09:34:13;;;;;;;5.43;4.90;;;;;;;26.50;53.81;96868.69;5024817;28;20210;-75
2023/06/15 09:36:51;;;;;;;5.53;4.07;;;;;;;26.59;52.37;96867.63;5026435;28;20689;-73
2023/06/15 09:39:23;;;;;;;4.90;3.93;;;;;;;26.59;51.95;96857.00;5029568;28;20206;-70
2023/06/15 09:41:58;;;;;;;4.30;3.90;;;;;;;26.54;51.65;96870.00;5045642;28;20237;-71
2023/06/15 09:44:26;;;;;;;5.43;4.00;;;;;;;26.35;52.23;96863.25;5046596;28;20208;-78
2023/06/15 09:46:57;;;;;;;4.67;3.97;;;;;;;26.23;51.99;96834.59;5044998;28;20698;-72
2023/06/15 09:49:26;;;;;;;6.47;3.60;;;;;;;26.32;52.75;96862.75;5045979;28;20205;-69
2023/06/15 09:51:55;;;;;;;5.10;4.60;;;;;;;26.76;52.06;96853.28;5027675;28;20194;-74
2023/06/15 09:54:24;;;;;;;4.17;3.67;;;;;;;27.06;50.72;96860.41;5045738;28;20204;-69
2023/06/15 09:56:53;;;;;;;5.70;4.37;;;;;;;27.27;50.58;96873.88;5046270;28;20272;-79
2023/06/15 09:59:21;;;;;;;6.93;4.47;;;;;;;27.08;50.81;96858.41;5046060;28;20277;-77
2023/06/15 10:01:50;;;;;;;4.93;3.73;;;;;;;26.82;49.87;96855.25;5047307;28;20272;-68
2023/06/15 10:04:19;;;;;;;4.47;3.60;;;;;;;26.74;50.75;96863.28;5027098;28;20202;-72
2023/06/15 10:06:55;;;;;;;4.83;3.90;;;;;;;26.63;51.11;96833.59;5046073;28;20209;-70
2023/06/15 10:09:28;;;;;;;6.17;3.90;;;;;;;27.11;50.10;96852.75;5027330;28;20241;-68
2023/06/15 10:12:05;;;;;;;4.63;3.60;;;;;;;27.39;49.28;96845.91;5045538;28;20213;-67
2023/06/15 10:14:37;;;;;;;5.53;4.60;;;;;;;27.81;49.32;96850.69;5046018;28;20692;-74
2023/06/15 10:17:08;;;;;;;5.73;3.70;;;;;;;27.39;48.70;96851.22;5044552;28;20213;-74
2023/06/15 10:19:42;;;;;;;4.40;3.97;;;;;;;27.33;49.00;96854.56;5045988;28;20225;-72
2023/06/15 10:22:18;;;;;;;5.13;3.40;;;;;;;27.26;49.63;96837.69;5041153;28;20692;-79
2023/06/15 10:24:46;;;;;;;8.23;4.00;;;;;;;27.51;49.72;96834.84;5025918;28;20225;-67
2023/06/15 10:27:14;;;;;;;4.83;3.40;;;;;;;27.57;49.71;96820.81;5032466;28;20288;-73
2023/06/15 10:29:44;;;;;;;6.17;4.27;;;;;;;27.67;49.20;96826.69;5040459;28;20283;-70
2023/06/15 10:32:28;;;;;;;6.53;4.87;;;;;;;28.17;47.81;96853.50;5034509;28;20201;-69
2023/06/15 10:35:08;;;;;;;5.10;3.67;;;;;;;27.19;49.86;96835.88;5033663;28;20205;-70
2023/06/15 10:37:46;;;;;;;5.30;3.90;;;;;;;27.36;49.94;96840.94;5045899;28;20209;-76
2023/06/15 10:40:24;;;;;;;6.37;3.83;;;;;;;27.44;49.21;96841.88;5046018;28;20619;-72
2023/06/15 10:42:55;;;;;;;6.03;3.40;;;;;;;27.12;48.90;96830.44;5027482;28;20279;-69
2023/06/15 10:45:29;;;;;;;7.30;4.10;;;;;;;26.90;49.08;96828.63;5047364;28;20888;-72
2023/06/15 10:47:58;;;;;;;4.77;3.53;;;;;;;26.77;50.14;96828.34;5049203;28;20769;-74
2023/06/15 10:50:27;;;;;;;5.67;3.53;;;;;;;26.67;50.85;96834.88;5049678;28;20201;-81
2023/06/15 10:52:55;;;;;;;4.40;4.00;;;;;;;26.97;51.16;96826.91;5049544;28;20264;-78
2023/06/15 10:55:26;;;;;;;4.20;3.80;;;;;;;27.21;48.73;96775.38;5031131;28;20202;-68
2023/06/15 10:58:15;;;;;;;4.10;3.67;;;;;;;27.70;48.78;96829.00;5049455;28;20198;-67
2023/06/15 11:00:44;;;;;;;4.53;3.70;;;;;;;27.45;49.25;96822.25;5048754;28;20635;-75
2023/06/15 11:03:25;;;;;;;4.83;3.63;;;;;;;27.58;48.74;96825.94;5050306;28;20300;-75
2023/06/15 11:06:10;;;;;;;6.13;3.80;;;;;;;27.71;48.56;96809.34;5049350;28;20206;-76
2023/06/15 11:08:44;;;;;;;6.10;4.50;;;;;;;27.90;47.92;96822.16;5048849;28;20201;-74
2023/06/15 11:11:12;;;;;;;4.13;3.73;;;;;;;27.82;47.40;96814.25;5049222;28;20205;-73
2023/06/15 11:14:02;;;;;;;11.90;3.80;;;;;;;27.74;46.85;96809.81;5049318;28;20316;-68
2023/06/15 11:16:33;;;;;;;7.10;3.53;;;;;;;27.85;46.63;96808.53;5049554;28;20648;-70
2023/06/15 11:19:12;;;;;;;4.53;4.10;;;;;;;28.06;46.75;96806.00;5030640;28;20361;-68
2023/06/15 11:21:50;;;;;;;3.77;3.47;;;;;;;27.96;46.83;96797.47;5030517;28;20611;-68
2023/06/15 11:24:19;;;;;;;3.50;3.20;;;;;;;27.76;46.35;96801.66;5048928;28;20677;-70
2023/06/15 11:26:48;;;;;;;4.90;4.07;;;;;;;27.77;46.82;96801.47;5048407;28;20204;-73
2023/06/15 11:29:25;;;;;;;6.80;3.40;;;;;;;28.08;45.94;96804.81;5049698;28;20241;-74
2023/06/15 11:31:54;;;;;;;6.30;3.70;;;;;;;28.01;46.11;96801.22;5048729;28;20205;-72
2023/06/15 11:34:21;;;;;;;7.17;3.60;;;;;;;27.43;47.98;96808.31;5048311;28;20194;-69
2023/06/15 11:36:48;;;;;;;4.83;3.63;;;;;;;27.54;47.97;96787.41;5031171;28;20209;-80
2023/06/15 11:39:22;;;;;;;4.80;3.80;;;;;;;27.39;47.87;96798.00;5048455;28;20263;-71
2023/06/15 11:41:50;;;;;;;4.20;3.80;;;;;;;27.72;47.54;96800.38;5049507;28;20257;-78
2023/06/15 11:44:21;;;;;;;5.23;4.10;;;;;;;27.67;47.58;96794.75;5048598;28;20350;-72
2023/06/15 11:47:12;;;;;;;4.47;3.67;;;;;;;27.47;46.43;96778.47;5048561;28;20249;-72
2023/06/15 11:49:39;;;;;;;4.10;3.80;;;;;;;27.65;46.79;96786.13;5048310;28;20293;-71
2023/06/15 11:52:06;;;;;;;5.33;3.70;;;;;;;27.61;47.91;96761.72;5047184;28;20248;-73
2023/06/15 11:54:33;;;;;;;6.87;3.83;;;;;;;28.00;47.68;96788.94;5048279;28;20666;-75
2023/06/15 11:57:18;;;;;;;4.40;3.90;;;;;;;27.69;48.01;96768.78;5028746;28;20263;-80
2023/06/15 11:59:45;;;;;;;4.97;4.03;;;;;;;27.60;48.39;96781.34;5048427;28;20224;-73
2023/06/15 12:02:13;;;;;;;5.77;4.20;;;;;;;27.81;48.12;96767.31;5031025;28;20296;-74
2023/06/15 12:04:41;;;;;;;5.03;3.93;;;;;;;27.56;49.62;96773.91;5050519;28;20212;-68
2023/06/15 12:07:08;;;;;;;5.00;4.60;;;;;;;28.15;48.29;96778.28;5050810;28;20210;-70
2023/06/15 12:09:44;;;;;;;5.90;4.17;;;;;;;28.41;47.01;96767.94;5014080;28;20205;-68
2023/06/15 12:12:29;;;;;;;6.67;4.37;;;;;;;28.43;47.23;96783.75;5048770;28;20229;-74
2023/06/15 12:14:58;;;;;;;6.07;4.03;;;;;;;28.37;48.03;96773.81;5047969;28;20274;-69
2023/06/15 12:17:32;;;;;;;6.57;4.13;;;;;;;28.59;47.30;96779.03;5048171;28;20229;-72
2023/06/15 12:20:10;;;;;;;7.63;4.90;;;;;;;28.76;47.88;96769.81;5030129;28;20200;-73
2023/06/15 12:22:46;;;;;;;7.10;5.53;;;;;;;28.70;47.11;96761.75;5044757;28;20206;-67
2023/06/15 12:25:15;;;;;;;5.77;3.70;;;;;;;28.61;46.01;96765.53;5028639;28;20289;-70
2023/06/15 12:27:45;;;;;;;6.60;4.23;;;;;;;28.72;46.25;96776.53;5027409;28;20298;-77
2023/06/15 12:30:18;;;;;;;4.80;3.50;;;;;;;28.32;46.45;96773.56;5028249;28;20221;-75
2023/06/15 12:32:47;;;;;;;8.47;3.80;;;;;;;28.26;46.61;96776.97;5028359;28;20254;-78
2023/06/15 12:35:34;;;;;;;3.60;3.30;;;;;;;28.36;45.94;96773.00;5026312;28;20220;-73
2023/06/15 12:38:01;;;;;;;5.70;4.00;;;;;;;28.47;47.15;96769.84;5020862;28;20194;-71
2023/06/15 12:40:28;;;;;;;5.47;3.30;;;;;;;28.35;46.85;96779.34;5003173;28;20646;-67
2023/06/15 12:43:00;;;;;;;4.80;4.07;;;;;;;28.24;47.72;96771.81;5008356;28;20341;-70
2023/06/15 12:45:28;;;;;;;5.40;3.90;;;;;;;27.99;48.01;96746.50;5007655;28;20218;-67
2023/06/15 12:47:56;;;;;;;5.00;4.00;;;;;;;28.16;48.12;96762.13;5007203;28;20631;-67
2023/06/15 12:50:24;;;;;;;6.27;4.13;;;;;;;27.97;48.92;96761.84;5007928;28;20296;-72
2023/06/15 12:52:57;;;;;;;9.90;5.27;;;;;;;27.94;49.39;96754.22;5007001;28;20254;-73
2023/06/15 12:55:25;;;;;;;5.43;4.50;;;;;;;27.98;49.08;96756.34;5007817;28;20207;-69
2023/06/15 12:57:55;;;;;;;5.93;3.70;;;;;;;27.73;49.27;96752.28;4989298;28;20214;-73
2023/06/15 13:00:27;;;;;;;5.10;3.87;;;;;;;27.53;49.88;96745.03;5007685;28;20273;-69
2023/06/15 13:02:55;;;;;;;6.93;3.50;;;;;;;27.51;49.55;96734.56;5007618;28;20207;-73
2023/06/15 13:05:22;;;;;;;8.50;3.93;;;;;;;27.61;50.06;96728.97;5007630;28;20286;-71
2023/06/15 13:07:50;;;;;;;9.93;3.70;;;;;;;27.70;49.50;96741.19;4974225;28;20206;-77
2023/06/15 13:10:17;;;;;;;4.20;3.53;;;;;;;27.72;48.72;96734.66;5006432;28;20207;-74